createdAt,value
2017-03-29T00:00:29.874Z,41.05
2017-03-29T00:01:29.907Z,40.86
2017-03-29T00:02:29.934Z,41.54
2017-03-29T00:03:29.646Z,41.05
2017-03-29T00:04:29.988Z,41.05
2017-03-29T00:05:29.696Z,41.44
2017-03-29T00:06:30.044Z,41.05
2017-03-29T00:07:29.761Z,41.54
2017-03-29T00:08:30.102Z,41.05
2017-03-29T00:09:29.815Z,40.86
2017-03-29T00:10:30.155Z,41.15
2017-03-29T00:11:29.873Z,40.96
2017-03-29T00:12:30.217Z,41.05
2017-03-29T00:13:30.242Z,41.25
2017-03-29T00:14:30.271Z,41.25
2017-03-29T00:15:29.980Z,41.15
2017-03-29T00:16:30.324Z,41.63
2017-03-29T00:17:30.382Z,41.63
2017-03-29T00:18:30.070Z,41.73
2017-03-29T00:19:30.407Z,41.44
2017-03-29T00:20:30.435Z,40.96
2017-03-29T00:21:30.469Z,41.44
2017-03-29T00:22:30.492Z,41.63
2017-03-29T00:23:30.521Z,41.73
2017-03-29T00:24:30.574Z,41.44
2017-03-29T00:25:30.583Z,41.44
2017-03-29T00:26:30.612Z,40.96
2017-03-29T00:27:30.634Z,41.73
2017-03-29T00:28:30.656Z,41.44
2017-03-29T00:29:30.376Z,41.44
2017-03-29T00:30:30.402Z,41.54
2017-03-29T00:31:30.747Z,41.83
2017-03-29T00:32:30.773Z,41.35
2017-03-29T00:33:30.494Z,41.35
2017-03-29T00:34:30.827Z,41.73
2017-03-29T00:35:30.859Z,41.44
2017-03-29T00:36:30.576Z,41.25
2017-03-29T00:37:30.916Z,41.35
2017-03-29T00:38:30.637Z,41.54
2017-03-29T00:39:30.971Z,41.54
2017-03-29T00:40:30.691Z,41.44
2017-03-29T00:41:31.028Z,41.54
2017-03-29T00:42:31.060Z,41.54
2017-03-29T00:43:30.773Z,41.44
2017-03-29T00:44:31.114Z,41.54
2017-03-29T00:45:31.143Z,41.54
2017-03-29T00:46:30.856Z,41.42
2017-03-29T00:47:31.196Z,41.44
2017-03-29T00:48:30.906Z,41.42
2017-03-29T00:49:31.254Z,41.42
2017-03-29T00:50:31.283Z,41.25
2017-03-29T00:51:31.250Z,41.44
2017-03-29T00:52:31.344Z,41.33
2017-03-29T00:53:31.361Z,41.35
2017-03-29T00:54:31.076Z,41.33
2017-03-29T00:55:31.431Z,41.42
2017-03-29T00:56:31.699Z,41.42
2017-03-29T00:57:31.500Z,41.35
2017-03-29T00:58:31.512Z,41.61
2017-03-29T00:59:31.539Z,41.35
2017-03-29T01:00:31.578Z,41.33
2017-03-29T01:01:31.867Z,41.42
2017-03-29T01:02:31.618Z,41.13
2017-03-29T01:03:31.339Z,41.42
2017-03-29T01:04:31.676Z,41.33
2017-03-29T01:05:31.702Z,41.33
2017-03-29T01:06:31.982Z,41.33
2017-03-29T01:07:31.454Z,41.13
2017-03-29T01:08:31.793Z,41.52
2017-03-29T01:09:31.505Z,41.33
2017-03-29T01:10:31.850Z,41.42
2017-03-29T01:11:32.114Z,41.33
2017-03-29T01:12:31.896Z,41.33
2017-03-29T01:13:31.925Z,41.33
2017-03-29T01:14:31.957Z,41.33
2017-03-29T01:15:31.665Z,41.42
2017-03-29T01:16:32.253Z,41.23
2017-03-29T01:17:32.038Z,41.13
2017-03-29T01:18:32.063Z,41.23
2017-03-29T01:19:32.092Z,40.94
2017-03-29T01:20:32.125Z,41.33
2017-03-29T01:21:32.406Z,41.23
2017-03-29T01:22:32.178Z,41.23
2017-03-29T01:23:32.200Z,40.94
2017-03-29T01:24:32.232Z,41.61
2017-03-29T01:25:32.261Z,41.23
2017-03-29T01:26:32.536Z,41.23
2017-03-29T01:27:32.317Z,41.42
2017-03-29T01:28:32.342Z,41.33
2017-03-29T01:29:32.376Z,41.52
2017-03-29T01:30:32.085Z,41.42
2017-03-29T01:31:32.360Z,41.42
2017-03-29T01:32:32.141Z,41.33
2017-03-29T01:33:32.484Z,41.33
2017-03-29T01:34:32.516Z,41.33
2017-03-29T01:35:32.540Z,41.33
2017-03-29T01:36:32.821Z,41.42
2017-03-29T01:37:32.286Z,41.52
2017-03-29T01:38:32.614Z,41.42
2017-03-29T01:39:32.647Z,41.52
2017-03-29T01:40:32.680Z,41.13
2017-03-29T01:41:32.713Z,41.23
2017-03-29T01:42:32.427Z,41.42
2017-03-29T01:43:32.758Z,41.52
2017-03-29T01:44:32.796Z,41.42
2017-03-29T01:45:32.508Z,41.52
2017-03-29T01:46:32.535Z,41.23
2017-03-29T01:47:32.882Z,41.03
2017-03-29T01:48:32.898Z,41.13
2017-03-29T01:49:32.927Z,41.33
2017-03-29T01:50:32.965Z,41.03
2017-03-29T01:51:32.988Z,41.42
2017-03-29T01:52:32.699Z,41.42
2017-03-29T01:53:33.035Z,41.23
2017-03-29T01:54:33.074Z,41.23
2017-03-29T01:55:33.099Z,41.23
2017-03-29T01:56:32.813Z,41.13
2017-03-29T01:57:33.154Z,41.33
2017-03-29T01:58:32.869Z,41.61
2017-03-29T01:59:33.210Z,41.61
2017-03-29T02:00:33.240Z,41.13
2017-03-29T02:01:33.265Z,41.71
2017-03-29T02:02:33.294Z,41.61
2017-03-29T02:03:33.323Z,41.71
2017-03-29T02:04:33.351Z,41.13
2017-03-29T02:05:33.375Z,41.61
2017-03-29T02:06:33.102Z,41.71
2017-03-29T02:07:33.432Z,41.71
2017-03-29T02:08:33.460Z,41.81
2017-03-29T02:09:33.487Z,41.71
2017-03-29T02:10:33.522Z,41.61
2017-03-29T02:11:33.540Z,41.71
2017-03-29T02:12:33.568Z,41.6
2017-03-29T02:13:33.597Z,41.52
2017-03-29T02:14:33.626Z,41.69
2017-03-29T02:15:33.368Z,41.42
2017-03-29T02:16:33.687Z,41.4
2017-03-29T02:17:33.396Z,41.61
2017-03-29T02:18:33.737Z,41.42
2017-03-29T02:19:33.766Z,41.52
2017-03-29T02:20:33.790Z,41.4
2017-03-29T02:21:33.503Z,41.69
2017-03-29T02:22:33.536Z,41.5
2017-03-29T02:23:33.877Z,41.6
2017-03-29T02:24:33.906Z,41.6
2017-03-29T02:25:33.932Z,41.5
2017-03-29T02:26:33.956Z,41.5
2017-03-29T02:27:33.984Z,41.61
2017-03-29T02:28:33.709Z,41.5
2017-03-29T02:29:34.046Z,41.69
2017-03-29T02:30:34.070Z,41.69
2017-03-29T02:31:34.103Z,41.4
2017-03-29T02:32:34.129Z,41.69
2017-03-29T02:33:34.156Z,41.3
2017-03-29T02:34:34.182Z,41.6
2017-03-29T02:35:34.211Z,41.78
2017-03-29T02:36:34.230Z,41.5
2017-03-29T02:37:34.259Z,41.5
2017-03-29T02:38:34.293Z,41.3
2017-03-29T02:39:34.329Z,41.6
2017-03-29T02:40:34.038Z,41.6
2017-03-29T02:41:34.060Z,41.5
2017-03-29T02:42:34.092Z,41.88
2017-03-29T02:43:34.436Z,41.69
2017-03-29T02:44:34.153Z,41.98
2017-03-29T02:45:34.486Z,41.78
2017-03-29T02:46:34.514Z,42.18
2017-03-29T02:47:34.543Z,41.98
2017-03-29T02:48:34.572Z,42.36
2017-03-29T02:49:34.605Z,42.08
2017-03-29T02:50:34.314Z,41.88
2017-03-29T02:51:34.654Z,41.69
2017-03-29T02:52:34.679Z,41.98
2017-03-29T02:53:34.707Z,41.69
2017-03-29T02:54:34.732Z,42.08
2017-03-29T02:55:34.761Z,41.6
2017-03-29T02:56:34.793Z,41.88
2017-03-29T02:57:34.816Z,42.08
2017-03-29T02:58:34.847Z,41.98
2017-03-29T02:59:34.875Z,42.08
2017-03-29T03:00:34.905Z,42.27
2017-03-29T03:01:34.617Z,41.98
2017-03-29T03:02:34.959Z,42.08
2017-03-29T03:03:34.987Z,42.08
2017-03-29T03:04:35.040Z,42.08
2017-03-29T03:05:35.040Z,42.18
2017-03-29T03:06:35.068Z,42.18
2017-03-29T03:07:35.093Z,42.18
2017-03-29T03:08:35.127Z,42.27
2017-03-29T03:09:35.151Z,42.08
2017-03-29T03:10:35.180Z,41.98
2017-03-29T03:11:35.209Z,41.98
2017-03-29T03:12:35.234Z,41.98
2017-03-29T03:13:35.267Z,42.18
2017-03-29T03:14:35.287Z,41.98
2017-03-29T03:15:35.009Z,42.08
2017-03-29T03:16:35.030Z,42.08
2017-03-29T03:17:35.625Z,42.08
2017-03-29T03:18:35.400Z,42.08
2017-03-29T03:19:35.428Z,42.18
2017-03-29T03:20:35.455Z,41.98
2017-03-29T03:21:35.478Z,42.08
2017-03-29T03:22:35.447Z,42.18
2017-03-29T03:23:35.541Z,42.18
2017-03-29T03:24:35.568Z,42.18
2017-03-29T03:25:35.591Z,42.18
2017-03-29T03:26:35.308Z,42.27
2017-03-29T03:27:35.902Z,42.18
2017-03-29T03:28:35.365Z,42.08
2017-03-29T03:29:35.703Z,42.27
2017-03-29T03:30:35.731Z,42.27
2017-03-29T03:31:35.764Z,42.27
2017-03-29T03:32:36.037Z,42.18
2017-03-29T03:33:35.501Z,42.27
2017-03-29T03:34:35.837Z,42.18
2017-03-29T03:35:35.895Z,42.27
2017-03-29T03:36:35.896Z,42.18
2017-03-29T03:37:35.860Z,42.27
2017-03-29T03:38:35.637Z,42.18
2017-03-29T03:39:35.979Z,42.18
2017-03-29T03:40:36.007Z,42.36
2017-03-29T03:41:36.028Z,42.18
2017-03-29T03:42:36.309Z,42.18
2017-03-29T03:43:36.089Z,42.18
2017-03-29T03:44:36.118Z,42.08
2017-03-29T03:45:36.142Z,42.18
2017-03-29T03:46:35.855Z,42.27
2017-03-29T03:47:36.451Z,42.18
2017-03-29T03:48:36.230Z,42.18
2017-03-29T03:49:36.255Z,42.08
2017-03-29T03:50:36.288Z,41.78
2017-03-29T03:51:36.310Z,42.18
2017-03-29T03:52:36.595Z,42.08
2017-03-29T03:53:36.373Z,42.08
2017-03-29T03:54:36.399Z,42.36
2017-03-29T03:55:36.423Z,42.18
2017-03-29T03:56:36.448Z,42.18
2017-03-29T03:57:36.727Z,42.18
2017-03-29T03:58:36.509Z,42.18
2017-03-29T03:59:36.530Z,42.18
2017-03-29T04:00:36.559Z,42.27
2017-03-29T04:01:36.591Z,42.18
2017-03-29T04:02:36.863Z,42.18
2017-03-29T04:03:36.329Z,41.78
2017-03-29T04:04:36.357Z,41.78
2017-03-29T04:05:36.690Z,41.78
2017-03-29T04:06:36.722Z,42.08
2017-03-29T04:07:36.751Z,41.78
2017-03-29T04:08:36.460Z,41.98
2017-03-29T04:09:36.493Z,41.78
2017-03-29T04:10:36.842Z,41.78
2017-03-29T04:11:36.856Z,42.27
2017-03-29T04:12:36.576Z,41.78
2017-03-29T04:13:36.912Z,41.98
2017-03-29T04:14:36.940Z,41.88
2017-03-29T04:15:36.969Z,41.67
2017-03-29T04:16:36.998Z,42.18
2017-03-29T04:17:37.027Z,41.78
2017-03-29T04:18:37.052Z,42.08
2017-03-29T04:19:36.769Z,41.78
2017-03-29T04:20:37.113Z,42.08
2017-03-29T04:21:36.821Z,42.05
2017-03-29T04:22:37.162Z,42.18
2017-03-29T04:23:37.191Z,41.78
2017-03-29T04:24:37.224Z,42.08
2017-03-29T04:25:37.242Z,41.88
2017-03-29T04:26:37.273Z,41.88
2017-03-29T04:27:36.990Z,42.08
2017-03-29T04:28:37.010Z,41.78
2017-03-29T04:29:37.360Z,41.86
2017-03-29T04:30:37.385Z,42.05
2017-03-29T04:31:37.410Z,42.05
2017-03-29T04:32:37.438Z,41.77
2017-03-29T04:33:37.468Z,42.05
2017-03-29T04:34:37.491Z,41.67
2017-03-29T04:35:37.523Z,41.77
2017-03-29T04:36:37.237Z,41.77
2017-03-29T04:37:37.576Z,41.77
2017-03-29T04:38:37.282Z,41.86
2017-03-29T04:39:37.314Z,41.77
2017-03-29T04:40:37.656Z,41.86
2017-03-29T04:41:37.686Z,41.86
2017-03-29T04:42:37.721Z,42.35
2017-03-29T04:43:37.733Z,41.86
2017-03-29T04:44:37.454Z,42.35
2017-03-29T04:45:37.795Z,42.44
2017-03-29T04:46:37.820Z,42.05
2017-03-29T04:47:37.850Z,41.96
2017-03-29T04:48:37.865Z,42.44
2017-03-29T04:49:37.589Z,42.35
2017-03-29T04:50:37.932Z,42.35
2017-03-29T04:51:37.956Z,41.96
2017-03-29T04:52:37.980Z,42.15
2017-03-29T04:53:38.009Z,42.15
2017-03-29T04:54:38.038Z,42.35
2017-03-29T04:55:37.755Z,42.35
2017-03-29T04:56:38.096Z,42.15
2017-03-29T04:57:37.813Z,42.25
2017-03-29T04:58:37.834Z,42.44
2017-03-29T04:59:37.866Z,42.44
2017-03-29T05:00:38.203Z,42.05
2017-03-29T05:01:38.232Z,42.15
2017-03-29T05:02:38.260Z,42.54
2017-03-29T05:03:38.281Z,42.44
2017-03-29T05:04:38.002Z,41.67
2017-03-29T05:05:38.342Z,42.25
2017-03-29T05:06:38.359Z,41.57
2017-03-29T05:07:38.396Z,41.67
2017-03-29T05:08:38.364Z,41.38
2017-03-29T05:09:38.138Z,42.05
2017-03-29T05:10:38.171Z,42.32
2017-03-29T05:11:38.510Z,42.71
2017-03-29T05:12:38.528Z,43.29
2017-03-29T05:13:38.804Z,43.19
2017-03-29T05:14:38.586Z,43.38
2017-03-29T05:15:38.615Z,42.52
2017-03-29T05:16:38.648Z,42.32
2017-03-29T05:17:38.672Z,42.49
2017-03-29T05:18:38.964Z,42.21
2017-03-29T05:19:38.425Z,42.69
2017-03-29T05:20:38.751Z,43.07
2017-03-29T05:21:38.781Z,42.3
2017-03-29T05:22:38.491Z,42.4
2017-03-29T05:23:39.085Z,43.17
2017-03-29T05:24:38.859Z,42.49
2017-03-29T05:25:38.895Z,42.4
2017-03-29T05:26:38.598Z,42.69
2017-03-29T05:27:38.632Z,43.73
2017-03-29T05:28:39.208Z,43.34
2017-03-29T05:29:38.994Z,42.96
2017-03-29T05:30:39.017Z,43.15
2017-03-29T05:31:38.734Z,43.24
2017-03-29T05:32:39.075Z,43.24
2017-03-29T05:33:39.360Z,43.63
2017-03-29T05:34:39.128Z,43.73
2017-03-29T05:35:39.149Z,43.92
2017-03-29T05:36:39.182Z,43.65
2017-03-29T05:37:39.224Z,43.75
2017-03-29T05:38:39.488Z,43.55
2017-03-29T05:39:39.260Z,43.27
2017-03-29T05:40:39.297Z,42.97
2017-03-29T05:41:39.334Z,42.59
2017-03-29T05:42:39.342Z,43.17
2017-03-29T05:43:39.618Z,43.27
2017-03-29T05:44:39.388Z,43.27
2017-03-29T05:45:39.424Z,43.07
2017-03-29T05:46:39.449Z,42.59
2017-03-29T05:47:39.474Z,43.27
2017-03-29T05:48:39.754Z,43.17
2017-03-29T05:49:39.526Z,43.17
2017-03-29T05:50:39.552Z,42.79
2017-03-29T05:51:39.585Z,43
2017-03-29T05:52:39.605Z,43.07
2017-03-29T05:53:39.573Z,43.19
2017-03-29T05:54:39.667Z,42.9
2017-03-29T05:55:39.698Z,42.8
2017-03-29T05:56:39.717Z,42.71
2017-03-29T05:57:39.427Z,42.42
2017-03-29T05:58:40.029Z,42.13
2017-03-29T05:59:39.483Z,42.61
2017-03-29T06:00:39.511Z,42.71
2017-03-29T06:01:39.852Z,42.61
2017-03-29T06:02:39.881Z,42.11
2017-03-29T06:03:40.157Z,42.42
2017-03-29T06:04:39.938Z,42.61
2017-03-29T06:05:39.959Z,42.42
2017-03-29T06:06:39.986Z,42.52
2017-03-29T06:07:40.014Z,42.52
2017-03-29T06:08:40.293Z,42.03
2017-03-29T06:09:40.074Z,42.52
2017-03-29T06:10:40.091Z,42.32
2017-03-29T06:11:40.125Z,42.61
2017-03-29T06:12:40.153Z,42.61
2017-03-29T06:13:40.433Z,42.52
2017-03-29T06:14:40.198Z,42.52
2017-03-29T06:15:39.915Z,42.32
2017-03-29T06:16:40.256Z,42.52
2017-03-29T06:17:40.290Z,42.71
2017-03-29T06:18:40.565Z,42.42
2017-03-29T06:19:40.338Z,42.52
2017-03-29T06:20:40.367Z,42.32
2017-03-29T06:21:40.391Z,42.42
2017-03-29T06:22:40.419Z,42.32
2017-03-29T06:23:40.696Z,42.71
2017-03-29T06:24:40.470Z,42.32
2017-03-29T06:25:40.190Z,42.03
2017-03-29T06:26:40.528Z,42.23
2017-03-29T06:27:40.553Z,42.03
2017-03-29T06:28:40.520Z,42.23
2017-03-29T06:29:40.294Z,42.03
2017-03-29T06:30:40.638Z,42.52
2017-03-29T06:31:40.655Z,42.52
2017-03-29T06:32:40.692Z,42.42
2017-03-29T06:33:40.655Z,42.42
2017-03-29T06:34:40.750Z,42.13
2017-03-29T06:35:40.771Z,42.42
2017-03-29T06:36:40.795Z,41.75
2017-03-29T06:37:40.824Z,42.61
2017-03-29T06:38:41.103Z,42.52
2017-03-29T06:39:40.565Z,42.23
2017-03-29T06:40:40.594Z,42.32
2017-03-29T06:41:40.619Z,42.13
2017-03-29T06:42:40.964Z,42.23
2017-03-29T06:43:41.244Z,42.32
2017-03-29T06:44:40.700Z,42.71
2017-03-29T06:45:41.043Z,42.03
2017-03-29T06:46:40.759Z,42.13
2017-03-29T06:47:41.100Z,42.03
2017-03-29T06:48:40.811Z,42.32
2017-03-29T06:49:40.857Z,41.94
2017-03-29T06:50:41.177Z,42.23
2017-03-29T06:51:41.204Z,42.03
2017-03-29T06:52:41.232Z,42.44
2017-03-29T06:53:41.260Z,42.35
2017-03-29T06:54:41.289Z,42.52
2017-03-29T06:55:41.314Z,42.35
2017-03-29T06:56:41.027Z,42.35
2017-03-29T06:57:41.059Z,41.77
2017-03-29T06:58:41.395Z,42.25
2017-03-29T06:59:41.417Z,42.25
2017-03-29T07:00:41.448Z,42.35
2017-03-29T07:01:41.474Z,42.54
2017-03-29T07:02:41.502Z,42.15
2017-03-29T07:03:41.561Z,42.35
2017-03-29T07:04:41.777Z,42.44
2017-03-29T07:05:41.624Z,42.54
2017-03-29T07:06:41.609Z,42.44
2017-03-29T07:07:41.326Z,42.05
2017-03-29T07:08:41.667Z,42.25
2017-03-29T07:09:41.692Z,42.35
2017-03-29T07:10:41.720Z,42.25
2017-03-29T07:11:41.432Z,41.86
2017-03-29T07:12:41.774Z,42.05
2017-03-29T07:13:41.795Z,42.35
2017-03-29T07:14:41.827Z,42.25
2017-03-29T07:15:41.856Z,42.35
2017-03-29T07:16:41.874Z,41.77
2017-03-29T07:17:41.593Z,41.77
2017-03-29T07:18:41.935Z,42.15
2017-03-29T07:19:41.964Z,42.54
2017-03-29T07:20:41.675Z,41.77
2017-03-29T07:21:42.007Z,41.67
2017-03-29T07:22:42.046Z,41.67
2017-03-29T07:23:42.070Z,42.05
2017-03-29T07:24:42.098Z,41.67
2017-03-29T07:25:41.807Z,41.96
2017-03-29T07:26:42.172Z,42.25
2017-03-29T07:27:42.183Z,42.25
2017-03-29T07:28:41.890Z,42.25
2017-03-29T07:29:42.237Z,42.27
2017-03-29T07:30:42.264Z,41.6
2017-03-29T07:31:42.289Z,41.5
2017-03-29T07:32:42.313Z,41.69
2017-03-29T07:33:42.032Z,41.11
2017-03-29T07:34:42.366Z,39.97
2017-03-29T07:35:42.399Z,38.74
2017-03-29T07:36:42.426Z,37.88
2017-03-29T07:37:42.140Z,37.52
2017-03-29T07:38:42.173Z,37.05
2017-03-29T07:39:42.506Z,36.78
2017-03-29T07:40:42.534Z,36.68
2017-03-29T07:41:42.563Z,36.22
2017-03-29T07:42:42.279Z,36.1
2017-03-29T07:43:42.305Z,36.3
2017-03-29T07:44:42.647Z,35.83
2017-03-29T07:45:42.675Z,34.88
2017-03-29T07:46:42.698Z,34.61
2017-03-29T07:47:42.733Z,34.62
2017-03-29T07:48:42.445Z,34.14
2017-03-29T07:49:42.726Z,33.26
2017-03-29T07:50:42.814Z,33.07
2017-03-29T07:51:42.841Z,34.33
2017-03-29T07:52:42.868Z,34.04
2017-03-29T07:53:42.900Z,34.43
2017-03-29T07:54:42.870Z,34.8
2017-03-29T07:55:42.954Z,35.17
2017-03-29T07:56:42.673Z,34.77
2017-03-29T07:57:43.011Z,35.73
2017-03-29T07:58:42.729Z,36
2017-03-29T07:59:43.325Z,36
2017-03-29T08:00:43.099Z,36.49
2017-03-29T08:01:43.122Z,36.86
2017-03-29T08:02:42.843Z,37.44
2017-03-29T08:03:43.179Z,37.63
2017-03-29T08:04:43.465Z,37.71
2017-03-29T08:05:43.237Z,37.52
2017-03-29T08:06:43.270Z,38.2
2017-03-29T08:07:42.979Z,38.48
2017-03-29T08:08:43.324Z,38.87
2017-03-29T08:09:43.293Z,38.78
2017-03-29T08:10:43.381Z,38.58
2017-03-29T08:11:43.404Z,39.36
2017-03-29T08:12:43.439Z,39.14
2017-03-29T08:13:43.472Z,38.66
2017-03-29T08:14:43.740Z,38.66
2017-03-29T08:15:43.521Z,38.76
2017-03-29T08:16:43.550Z,38.85
2017-03-29T08:17:43.262Z,38.85
2017-03-29T08:18:43.606Z,38.85
2017-03-29T08:19:43.880Z,38.46
2017-03-29T08:20:43.657Z,39.34
2017-03-29T08:21:43.690Z,39.41
2017-03-29T08:22:43.718Z,39.61
2017-03-29T08:23:43.743Z,40.19
2017-03-29T08:24:44.011Z,40.19
2017-03-29T08:25:43.804Z,40.19
2017-03-29T08:26:43.825Z,40.09
2017-03-29T08:27:43.851Z,39.61
2017-03-29T08:28:43.894Z,39.99
2017-03-29T08:29:44.159Z,40.09
2017-03-29T08:30:43.628Z,39.9
2017-03-29T08:31:43.965Z,40.19
2017-03-29T08:32:43.994Z,40.09
2017-03-29T08:33:43.709Z,39.8
2017-03-29T08:34:44.290Z,39.9
2017-03-29T08:35:44.078Z,39.9
2017-03-29T08:36:44.101Z,39.7
2017-03-29T08:37:44.125Z,40.19
2017-03-29T08:38:44.158Z,40.28
2017-03-29T08:39:44.436Z,40.67
2017-03-29T08:40:43.900Z,40.19
2017-03-29T08:41:44.240Z,40.19
2017-03-29T08:42:44.269Z,40.28
2017-03-29T08:43:44.297Z,40.09
2017-03-29T08:44:44.573Z,40.09
2017-03-29T08:45:44.354Z,40.28
2017-03-29T08:46:44.069Z,40.28
2017-03-29T08:47:44.408Z,40.57
2017-03-29T08:48:44.438Z,40.77
2017-03-29T08:49:44.714Z,40.77
2017-03-29T08:50:44.492Z,40.96
2017-03-29T08:51:44.513Z,40.57
2017-03-29T08:52:44.553Z,40.57
2017-03-29T08:53:44.577Z,40.77
2017-03-29T08:54:44.859Z,40.28
2017-03-29T08:55:44.632Z,40.77
2017-03-29T08:56:44.656Z,40.67
2017-03-29T08:57:44.684Z,40.77
2017-03-29T08:58:44.718Z,40.77
2017-03-29T08:59:44.707Z,40.77
2017-03-29T09:00:44.768Z,40.57
2017-03-29T09:01:44.796Z,40.86
2017-03-29T09:02:44.829Z,40.28
2017-03-29T09:03:44.857Z,40.2
2017-03-29T09:04:45.130Z,40.11
2017-03-29T09:05:44.603Z,39.43
2017-03-29T09:06:44.936Z,38.78
2017-03-29T09:07:44.989Z,39.09
2017-03-29T09:08:44.674Z,38.02
2017-03-29T09:09:45.268Z,37.75
2017-03-29T09:10:45.054Z,37.46
2017-03-29T09:11:44.764Z,36.9
2017-03-29T09:12:45.108Z,36.41
2017-03-29T09:13:44.827Z,36.52
2017-03-29T09:14:45.413Z,36.24
2017-03-29T09:15:44.876Z,35.75
2017-03-29T09:16:45.223Z,36.51
2017-03-29T09:17:45.247Z,35.85
2017-03-29T09:18:45.271Z,36.43
2017-03-29T09:19:45.556Z,36.24
2017-03-29T09:20:45.330Z,36.33
2017-03-29T09:21:45.360Z,35.94
2017-03-29T09:22:45.075Z,36.04
2017-03-29T09:23:45.416Z,36.41
2017-03-29T09:24:45.708Z,36.82
2017-03-29T09:25:45.158Z,36.7
2017-03-29T09:26:45.498Z,36.7
2017-03-29T09:27:45.527Z,36.99
2017-03-29T09:28:45.240Z,36.99
2017-03-29T09:29:45.836Z,37.28
2017-03-29T09:30:45.614Z,37.65
2017-03-29T09:31:45.644Z,37.46
2017-03-29T09:32:45.671Z,37.26
2017-03-29T09:33:45.696Z,37.75
2017-03-29T09:34:45.980Z,37.36
2017-03-29T09:35:45.753Z,37.85
2017-03-29T09:36:45.786Z,37.73
2017-03-29T09:37:45.810Z,38.21
2017-03-29T09:38:45.840Z,38.21
2017-03-29T09:39:45.554Z,38.31
2017-03-29T09:40:45.892Z,38.02
2017-03-29T09:41:45.925Z,37.92
2017-03-29T09:42:45.635Z,38.41
2017-03-29T09:43:45.980Z,37.92
2017-03-29T09:44:46.009Z,37.73
2017-03-29T09:45:46.041Z,38.12
2017-03-29T09:46:45.754Z,38.6
2017-03-29T09:47:45.782Z,38.5
2017-03-29T09:48:45.806Z,38.31
2017-03-29T09:49:46.152Z,37.9
2017-03-29T09:50:46.185Z,37.92
2017-03-29T09:51:46.213Z,38.12
2017-03-29T09:52:46.239Z,37.73
2017-03-29T09:53:45.959Z,37.63
2017-03-29T09:54:46.291Z,36.96
2017-03-29T09:55:46.010Z,36.96
2017-03-29T09:56:46.347Z,37.34
2017-03-29T09:57:46.378Z,37.05
2017-03-29T09:58:46.406Z,36.84
2017-03-29T09:59:46.433Z,36.47
2017-03-29T10:00:46.464Z,36.18
2017-03-29T10:01:46.178Z,36.47
2017-03-29T10:02:46.521Z,36.18
2017-03-29T10:03:46.550Z,35.8
2017-03-29T10:04:46.574Z,36.08
2017-03-29T10:05:46.600Z,35.7
2017-03-29T10:06:46.632Z,35.5
2017-03-29T10:07:46.662Z,35.41
2017-03-29T10:08:46.687Z,35.12
2017-03-29T10:09:46.718Z,35.8
2017-03-29T10:10:46.746Z,36.08
2017-03-29T10:11:46.773Z,35.5
2017-03-29T10:12:46.806Z,35.6
2017-03-29T10:13:46.828Z,35.8
2017-03-29T10:14:46.859Z,35.89
2017-03-29T10:15:46.892Z,36.18
2017-03-29T10:16:46.916Z,36.08
2017-03-29T10:17:46.945Z,35.99
2017-03-29T10:18:46.974Z,35.99
2017-03-29T10:19:46.998Z,35.99
2017-03-29T10:20:47.032Z,36.18
2017-03-29T10:21:47.056Z,35.31
2017-03-29T10:22:47.089Z,35.02
2017-03-29T10:23:47.120Z,35.5
2017-03-29T10:24:47.150Z,34.73
2017-03-29T10:25:47.174Z,34.73
2017-03-29T10:26:47.209Z,35.12
2017-03-29T10:27:46.919Z,34.92
2017-03-29T10:28:47.261Z,35.21
2017-03-29T10:29:47.294Z,34.92
2017-03-29T10:30:47.323Z,35.02
2017-03-29T10:31:47.027Z,35.02
2017-03-29T10:32:47.375Z,34.92
2017-03-29T10:33:47.396Z,35.12
2017-03-29T10:34:47.434Z,35.31
2017-03-29T10:35:47.462Z,35.02
2017-03-29T10:36:47.487Z,35.02
2017-03-29T10:37:47.520Z,35.12
2017-03-29T10:38:47.542Z,35.02
2017-03-29T10:39:47.574Z,35.02
2017-03-29T10:40:47.561Z,34.92
2017-03-29T10:41:47.641Z,34.73
2017-03-29T10:42:47.342Z,34.83
2017-03-29T10:43:47.696Z,34.92
2017-03-29T10:44:47.720Z,34.73
2017-03-29T10:45:47.994Z,35.02
2017-03-29T10:46:47.462Z,35.21
2017-03-29T10:47:47.804Z,35.02
2017-03-29T10:48:47.832Z,35.02
2017-03-29T10:49:47.549Z,34.92
2017-03-29T10:50:47.826Z,34.83
2017-03-29T10:51:47.919Z,35.21
2017-03-29T10:52:47.943Z,34.73
2017-03-29T10:53:47.661Z,35.02
2017-03-29T10:54:48.013Z,35.21
2017-03-29T10:55:47.966Z,35.21
2017-03-29T10:56:47.750Z,35.21
2017-03-29T10:57:47.776Z,35.31
2017-03-29T10:58:48.120Z,35.7
2017-03-29T10:59:48.149Z,34.92
2017-03-29T11:00:48.434Z,35.02
2017-03-29T11:01:48.206Z,35.02
2017-03-29T11:02:48.234Z,35.21
2017-03-29T11:03:48.264Z,35.31
2017-03-29T11:04:48.294Z,34.92
2017-03-29T11:05:48.577Z,34.92
2017-03-29T11:06:48.349Z,34.54
2017-03-29T11:07:48.378Z,35.12
2017-03-29T11:08:48.412Z,34.73
2017-03-29T11:09:48.436Z,34.54
2017-03-29T11:10:48.404Z,35.02
2017-03-29T11:11:48.186Z,35.21
2017-03-29T11:12:48.523Z,35.21
2017-03-29T11:13:48.552Z,35.31
2017-03-29T11:14:48.264Z,34.92
2017-03-29T11:15:48.860Z,35.21
2017-03-29T11:16:48.641Z,35.02
2017-03-29T11:17:48.669Z,35.02
2017-03-29T11:18:48.703Z,34.54
2017-03-29T11:19:48.728Z,34.54
2017-03-29T11:20:49.012Z,34.83
2017-03-29T11:21:48.786Z,34.75
2017-03-29T11:22:48.818Z,34.05
2017-03-29T11:23:48.531Z,34.54
2017-03-29T11:24:48.870Z,34.63
2017-03-29T11:25:48.583Z,35.12
2017-03-29T11:26:48.612Z,34.83
2017-03-29T11:27:48.961Z,34.44
2017-03-29T11:28:48.995Z,34.54
2017-03-29T11:29:49.014Z,34.83
2017-03-29T11:30:48.728Z,35.02
2017-03-29T11:31:49.068Z,35.41
2017-03-29T11:32:48.792Z,34.94
2017-03-29T11:33:48.817Z,34.45
2017-03-29T11:34:49.166Z,34.45
2017-03-29T11:35:49.203Z,33.97
2017-03-29T11:36:49.220Z,33.87
2017-03-29T11:37:49.249Z,34.07
2017-03-29T11:38:49.276Z,33.87
2017-03-29T11:39:49.307Z,34.65
2017-03-29T11:40:49.023Z,34.07
2017-03-29T11:41:49.048Z,34.36
2017-03-29T11:42:49.080Z,34.65
2017-03-29T11:43:49.105Z,34.67
2017-03-29T11:44:49.130Z,33.8
2017-03-29T11:45:49.168Z,33.97
2017-03-29T11:46:49.508Z,34.09
2017-03-29T11:47:49.541Z,33.89
2017-03-29T11:48:49.566Z,33.6
2017-03-29T11:49:49.603Z,33.22
2017-03-29T11:50:49.313Z,33.02
2017-03-29T11:51:49.344Z,32.82
2017-03-29T11:52:49.684Z,32.56
2017-03-29T11:53:49.715Z,32.56
2017-03-29T11:54:49.746Z,32.46
2017-03-29T11:55:49.775Z,32.46
2017-03-29T11:56:49.799Z,32.37
2017-03-29T11:57:49.832Z,31.99
2017-03-29T11:58:49.860Z,31.41
2017-03-29T11:59:49.894Z,31.13
2017-03-29T12:00:49.923Z,31.23
2017-03-29T12:01:49.952Z,30.76
2017-03-29T12:02:49.669Z,30.08
2017-03-29T12:03:50.021Z,29.98
2017-03-29T12:04:50.046Z,29.61
2017-03-29T12:05:49.763Z,29.61
2017-03-29T12:06:50.102Z,29.41
2017-03-29T12:07:50.140Z,29.52
2017-03-29T12:08:50.164Z,29.52
2017-03-29T12:09:50.201Z,29.52
2017-03-29T12:10:50.221Z,29.15
2017-03-29T12:11:50.249Z,28.76
2017-03-29T12:12:50.291Z,28.57
2017-03-29T12:13:50.007Z,28.47
2017-03-29T12:14:50.041Z,28.68
2017-03-29T12:15:50.382Z,28.39
2017-03-29T12:16:50.409Z,28.39
2017-03-29T12:17:50.442Z,27.92
2017-03-29T12:18:50.160Z,28.69
2017-03-29T12:19:50.517Z,28.2
2017-03-29T12:20:50.537Z,27.92
2017-03-29T12:21:50.574Z,27.73
2017-03-29T12:22:50.603Z,27.64
2017-03-29T12:23:50.636Z,27.44
2017-03-29T12:24:50.664Z,27.54
2017-03-29T12:25:50.699Z,26.68
2017-03-29T12:26:50.731Z,27.26
2017-03-29T12:27:50.760Z,26.87
2017-03-29T12:28:50.788Z,26.48
2017-03-29T12:29:50.825Z,26.39
2017-03-29T12:30:50.856Z,26.39
2017-03-29T12:31:50.885Z,25.91
2017-03-29T12:32:50.914Z,26.1
2017-03-29T12:33:50.952Z,25.81
2017-03-29T12:34:50.668Z,25.52
2017-03-29T12:35:51.017Z,25.73
2017-03-29T12:36:51.049Z,25.52
2017-03-29T12:37:51.083Z,25.43
2017-03-29T12:38:51.117Z,25.63
2017-03-29T12:39:51.142Z,25.14
2017-03-29T12:40:51.173Z,25.24
2017-03-29T12:41:51.209Z,25.34
2017-03-29T12:42:51.243Z,25.24
2017-03-29T12:43:51.273Z,25.04
2017-03-29T12:44:51.304Z,25.14
2017-03-29T12:45:51.337Z,25.25
2017-03-29T12:46:51.373Z,25.15
2017-03-29T12:47:51.402Z,25.05
2017-03-29T12:48:51.123Z,24.96
2017-03-29T12:49:51.467Z,25.15
2017-03-29T12:50:51.499Z,25.15
2017-03-29T12:51:51.531Z,24.57
2017-03-29T12:52:51.567Z,24.38
2017-03-29T12:53:51.597Z,24.18
2017-03-29T12:54:51.630Z,23.89